Time;durP1;ratioP1;P1;durP2;ratioP2;P2;SDS_P1;SDS_P2;PMS_P1;PMS_P2;Temp;Humidity;BMP_temperature;BMP_pressure;BME280_temperature;BME280_humidity;BME280_pressure;Samples;Min_cycle;Max_cycle;Signal;HPM_P1;HPM_P2
2020/12/25 00:00:00;;;;;;;2.55;1.00;;;;;8.80;101862.00;;;;5089684;28;20280;-77
2020/12/25 00:02:27;;;;;;;1.38;1.00;;;;;8.80;101870.00;;;;5089156;28;20725;-76
2020/12/25 00:04:54;;;;;;;2.97;1.08;;;;;8.70;101861.00;;;;5088595;28;20202;-77
2020/12/25 00:07:21;;;;;;;1.85;0.90;;;;;8.80;101859.00;;;;5087356;28;20210;-77
2020/12/25 00:09:48;;;;;;;1.88;0.88;;;;;8.70;101863.00;;;;5088682;28;20198;-77
2020/12/25 00:12:14;;;;;;;3.53;1.10;;;;;8.70;101865.00;;;;5089454;28;20226;-77
2020/12/25 00:14:41;;;;;;;2.88;1.15;;;;;8.70;101862.00;;;;5088519;28;20198;-77
2020/12/25 00:17:08;;;;;;;2.72;0.90;;;;;8.70;101871.00;;;;5089409;28;20237;-76
2020/12/25 00:19:34;;;;;;;1.20;0.70;;;;;8.70;101873.00;;;;5087749;28;20195;-77
2020/12/25 00:22:02;;;;;;;3.80;0.75;;;;;8.60;101874.00;;;;5088747;28;20194;-77
2020/12/25 00:24:29;;;;;;;1.20;0.52;;;;;8.60;101890.00;;;;5087699;28;20676;-77
2020/12/25 00:26:55;;;;;;;4.43;0.93;;;;;8.60;101887.00;;;;5087605;28;20190;-77
2020/12/25 00:29:22;;;;;;;1.17;0.65;;;;;8.60;101898.00;;;;5088543;28;20209;-77
2020/12/25 00:31:49;;;;;;;1.98;0.55;;;;;8.60;101900.00;;;;5086954;28;20279;-77
2020/12/25 00:34:16;;;;;;;2.30;0.90;;;;;8.60;101906.00;;;;5088384;28;20198;-76
2020/12/25 00:36:44;;;;;;;1.08;0.50;;;;;8.60;101903.00;;;;5086897;28;20207;-76
2020/12/25 00:39:13;;;;;;;1.20;0.63;;;;;8.60;101912.00;;;;5085211;28;20194;-77
2020/12/25 00:41:44;;;;;;;3.63;0.70;;;;;8.60;101908.00;;;;5085451;28;20202;-77
2020/12/25 00:44:11;;;;;;;6.43;0.80;;;;;8.60;101920.00;;;;5088945;28;20210;-77
2020/12/25 00:46:39;;;;;;;0.88;0.35;;;;;8.60;101913.00;;;;5087261;28;20608;-77
2020/12/25 00:49:06;;;;;;;0.50;0.10;;;;;8.60;101907.00;;;;5088687;28;20190;-76
2020/12/25 00:51:33;;;;;;;1.00;0.40;;;;;8.60;101911.00;;;;5085697;28;20229;-77
2020/12/25 00:53:59;;;;;;;0.98;0.28;;;;;8.60;101916.00;;;;5088328;28;20201;-76
2020/12/25 00:56:27;;;;;;;2.33;0.30;;;;;8.60;101919.00;;;;5088473;28;20232;-77
2020/12/25 00:58:54;;;;;;;2.13;0.70;;;;;8.60;101919.00;;;;5086834;28;20206;-77
2020/12/25 01:01:21;;;;;;;2.33;0.50;;;;;8.60;101919.00;;;;5087414;28;20222;-76
2020/12/25 01:03:47;;;;;;;1.10;0.55;;;;;8.60;101926.00;;;;5086024;28;20214;-77
2020/12/25 01:06:16;;;;;;;1.65;0.50;;;;;8.60;101931.00;;;;5083138;28;20255;-76
2020/12/25 01:08:43;;;;;;;0.60;0.30;;;;;8.60;101931.00;;;;5085793;28;20201;-76
2020/12/25 01:11:10;;;;;;;1.13;0.50;;;;;8.70;101933.00;;;;5084053;28;20218;-77
2020/12/25 01:13:39;;;;;;;1.75;0.40;;;;;8.70;101920.00;;;;5087799;28;20190;-76
2020/12/25 01:16:06;;;;;;;1.15;0.52;;;;;8.70;101937.00;;;;5087836;28;20202;-77
2020/12/25 01:18:34;;;;;;;0.68;0.32;;;;;8.70;101938.00;;;;5087039;28;20195;-77
2020/12/25 01:21:00;;;;;;;0.63;0.20;;;;;8.70;101942.00;;;;5087747;28;20198;-76
2020/12/25 01:23:27;;;;;;;0.52;0.45;;;;;8.80;101932.00;;;;5078726;28;21066;-77
2020/12/25 01:25:54;;;;;;;1.63;0.20;;;;;8.80;101948.00;;;;5078972;28;20201;-76
2020/12/25 01:28:21;;;;;;;0.80;0.30;;;;;8.90;101947.00;;;;5087333;28;20194;-77
2020/12/25 01:30:48;;;;;;;0.45;0.30;;;;;8.90;101950.00;;;;5087049;28;20233;-77
2020/12/25 01:33:15;;;;;;;2.00;0.20;;;;;8.90;101962.00;;;;5086516;28;20199;-77
2020/12/25 01:35:42;;;;;;;0.25;0.10;;;;;8.90;101975.00;;;;5086775;28;20200;-77
2020/12/25 01:38:08;;;;;;;1.17;0.55;;;;;8.90;101974.00;;;;5087728;28;20209;-77
2020/12/25 01:40:35;;;;;;;1.70;0.20;;;;;9.00;101974.00;;;;5088145;28;20194;-77
2020/12/25 01:43:02;;;;;;;0.82;0.35;;;;;9.00;101981.00;;;;5080728;28;20738;-77
2020/12/25 01:45:29;;;;;;;0.65;0.20;;;;;9.00;101986.00;;;;5088179;28;20209;-76
2020/12/25 01:47:58;;;;;;;0.30;0.20;;;;;9.00;101985.00;;;;5087997;28;20194;-77
2020/12/25 01:50:27;;;;;;;0.10;0.10;;;;;9.00;101989.00;;;;5087526;28;20656;-77
2020/12/25 01:52:56;;;;;;;2.92;0.40;;;;;9.10;101989.00;;;;5081761;28;20194;-77
2020/12/25 01:55:25;;;;;;;0.98;0.30;;;;;9.10;101991.00;;;;5082844;28;20202;-77
2020/12/25 01:57:54;;;;;;;0.65;0.20;;;;;9.10;101988.00;;;;5086743;28;20681;-77
2020/12/25 02:00:22;;;;;;;1.25;0.10;;;;;9.10;101990.00;;;;5087512;28;20269;-77
2020/12/25 02:02:48;;;;;;;2.10;0.50;;;;;9.10;101993.00;;;;5086776;28;20198;-77
2020/12/25 02:05:16;;;;;;;0.60;0.10;;;;;9.10;101994.00;;;;5087304;28;20211;-77
2020/12/25 02:07:43;;;;;;;0.63;0.25;;;;;9.20;101999.00;;;;5086060;28;20206;-77
2020/12/25 02:10:10;;;;;;;0.73;0.10;;;;;9.20;102004.00;;;;5086606;28;20198;-77
2020/12/25 02:12:38;;;;;;;1.00;0.15;;;;;9.20;102007.00;;;;5086584;28;20214;-77
2020/12/25 02:15:05;;;;;;;0.55;0.22;;;;;9.30;101998.00;;;;5087921;28;20203;-77
2020/12/25 02:17:32;;;;;;;1.40;0.30;;;;;9.30;102005.00;;;;5090231;28;20205;-77
2020/12/25 02:20:00;;;;;;;1.20;0.20;;;;;9.30;101998.00;;;;5090790;28;20202;-77
2020/12/25 02:22:28;;;;;;;0.15;0.00;;;;;9.30;101993.00;;;;5090984;28;20194;-76
2020/12/25 02:24:55;;;;;;;0.35;0.10;;;;;9.40;102001.00;;;;5091127;28;20551;-76
2020/12/25 02:27:22;;;;;;;1.35;0.20;;;;;9.40;102005.00;;;;5090666;28;20194;-77
2020/12/25 02:29:48;;;;;;;1.73;0.10;;;;;9.40;102014.00;;;;5089966;28;20194;-76
2020/12/25 02:32:15;;;;;;;0.95;0.10;;;;;9.40;102019.00;;;;5091045;28;20300;-77
2020/12/25 02:34:42;;;;;;;0.68;0.40;;;;;9.40;102022.00;;;;5089799;28;20206;-77
2020/12/25 02:37:08;;;;;;;0.00;0.00;;;;;9.50;102014.00;;;;5088175;28;20588;-77
2020/12/25 02:39:36;;;;;;;1.50;0.25;;;;;9.40;102022.00;;;;5090404;28;20197;-77
2020/12/25 02:42:03;;;;;;;0.95;0.30;;;;;9.40;102028.00;;;;5071659;28;20207;-76
2020/12/25 02:44:29;;;;;;;0.80;0.10;;;;;9.40;102031.00;;;;5090753;28;20201;-77
2020/12/25 02:46:56;;;;;;;1.00;0.03;;;;;9.40;102034.00;;;;5089359;28;20202;-77
2020/12/25 02:49:23;;;;;;;1.67;0.50;;;;;9.30;102026.00;;;;5090406;28;20194;-76
2020/12/25 02:51:49;;;;;;;0.20;0.10;;;;;9.30;102044.00;;;;5089914;28;20222;-77
2020/12/25 02:54:16;;;;;;;0.80;0.00;;;;;9.30;102045.00;;;;5090581;28;20221;-76
2020/12/25 02:56:44;;;;;;;0.68;0.20;;;;;9.30;102051.00;;;;5090438;28;20198;-76
2020/12/25 02:59:10;;;;;;;0.15;0.00;;;;;9.30;102065.00;;;;5090565;28;20191;-77
2020/12/25 03:01:37;;;;;;;0.98;0.25;;;;;9.40;102072.00;;;;5088979;28;20200;-77
2020/12/25 03:04:04;;;;;;;0.38;0.00;;;;;9.40;102065.00;;;;5090472;28;20194;-77
2020/12/25 03:06:30;;;;;;;0.40;0.10;;;;;9.40;102063.00;;;;5089737;28;20214;-77
2020/12/25 03:08:57;;;;;;;0.68;0.08;;;;;9.40;102062.00;;;;5089292;28;20213;-77
2020/12/25 03:11:25;;;;;;;0.10;0.00;;;;;9.40;102027.00;;;;5089453;28;20213;-76
2020/12/25 03:13:52;;;;;;;0.20;0.00;;;;;9.40;102026.00;;;;5089903;28;20221;-77
2020/12/25 03:16:19;;;;;;;0.38;0.30;;;;;9.40;102034.00;;;;5090193;28;20198;-77
2020/12/25 03:18:46;;;;;;;0.00;0.00;;;;;9.40;102037.00;;;;5089159;28;20202;-77
2020/12/25 03:21:12;;;;;;;2.10;0.00;;;;;9.40;102042.00;;;;5089938;28;20202;-76
2020/12/25 03:23:39;;;;;;;1.75;0.03;;;;;9.40;102046.00;;;;5088817;28;20431;-77
2020/12/25 03:26:06;;;;;;;0.10;0.00;;;;;9.40;102042.00;;;;5088397;28;20191;-77
2020/12/25 03:28:33;;;;;;;0.57;0.10;;;;;9.40;102046.00;;;;5088427;28;20194;-76
2020/12/25 03:31:00;;;;;;;0.70;0.25;;;;;9.40;102047.00;;;;5089902;28;20217;-76
2020/12/25 03:33:27;;;;;;;1.00;0.10;;;;;9.40;102047.00;;;;5089098;28;20206;-77
2020/12/25 03:35:54;;;;;;;0.08;0.00;;;;;9.40;102049.00;;;;5088581;28;20202;-76
2020/12/25 03:38:21;;;;;;;0.22;0.10;;;;;9.30;102054.00;;;;5089127;28;20941;-77
2020/12/25 03:40:47;;;;;;;0.40;0.00;;;;;9.30;102055.00;;;;5088831;28;20205;-77
2020/12/25 03:43:14;;;;;;;0.00;0.00;;;;;9.30;102069.00;;;;5089916;28;20741;-77
2020/12/25 03:45:41;;;;;;;0.17;0.00;;;;;9.20;102067.00;;;;5087935;28;20198;-76
2020/12/25 03:48:08;;;;;;;0.10;0.00;;;;;9.20;102073.00;;;;5088819;28;20194;-76
2020/12/25 03:50:35;;;;;;;0.35;0.00;;;;;9.20;102063.00;;;;5088438;28;20296;-77
2020/12/25 03:53:02;;;;;;;0.55;0.10;;;;;9.10;102065.00;;;;5088601;28;20220;-77
2020/12/25 03:55:28;;;;;;;1.08;0.38;;;;;9.10;102070.00;;;;5089189;28;20202;-76
2020/12/25 03:57:55;;;;;;;1.42;0.10;;;;;9.10;102070.00;;;;5088692;28;20243;-76
2020/12/25 04:00:22;;;;;;;1.13;0.05;;;;;9.10;102058.00;;;;5088436;28;20268;-76
2020/12/25 04:02:49;;;;;;;3.92;0.05;;;;;9.00;102067.00;;;;5088769;28;20259;-76
2020/12/25 04:05:17;;;;;;;0.10;0.00;;;;;9.00;102063.00;;;;5088808;28;20202;-76
2020/12/25 04:07:43;;;;;;;0.95;0.10;;;;;9.00;102055.00;;;;5088234;28;20790;-77
2020/12/25 04:10:10;;;;;;;0.00;0.00;;;;;8.90;102054.00;;;;5088904;28;20198;-76
2020/12/25 04:12:37;;;;;;;0.20;0.03;;;;;8.90;102061.00;;;;5088525;28;20222;-77
2020/12/25 04:15:04;;;;;;;0.22;0.10;;;;;8.90;102058.00;;;;5088007;28;20194;-76
2020/12/25 04:17:31;;;;;;;0.00;0.00;;;;;8.80;102064.00;;;;5084421;28;20194;-77
2020/12/25 04:19:57;;;;;;;0.00;0.00;;;;;8.80;102073.00;;;;5088945;28;20201;-77
2020/12/25 04:22:25;;;;;;;0.57;0.20;;;;;8.70;102072.00;;;;5088282;28;20198;-77
2020/12/25 04:24:52;;;;;;;0.22;0.00;;;;;8.70;102069.00;;;;5088260;28;20496;-77
2020/12/25 04:27:18;;;;;;;0.40;0.08;;;;;8.70;102073.00;;;;5088553;28;20194;-76
2020/12/25 04:29:45;;;;;;;1.05;0.00;;;;;8.70;102072.00;;;;5088730;28;20617;-77
2020/12/25 04:32:12;;;;;;;0.43;0.00;;;;;8.70;102075.00;;;;5088022;28;20225;-76
2020/12/25 04:34:38;;;;;;;0.00;0.00;;;;;8.60;102081.00;;;;5087532;28;20566;-76
2020/12/25 04:37:05;;;;;;;0.38;0.15;;;;;8.60;102089.00;;;;5088882;28;20190;-77
2020/12/25 04:39:33;;;;;;;0.17;0.00;;;;;8.50;102088.00;;;;5088054;28;20549;-76
2020/12/25 04:42:00;;;;;;;1.10;0.10;;;;;8.50;102089.00;;;;5088795;28;20198;-76
2020/12/25 04:44:27;;;;;;;0.35;0.10;;;;;8.50;102087.00;;;;5088785;28;20190;-76
2020/12/25 04:46:58;;;;;;;0.10;0.00;;;;;8.50;102090.00;;;;5087726;28;20192;-76
2020/12/25 04:49:25;;;;;;;0.08;0.00;;;;;8.40;102088.00;;;;5088346;28;20201;-77
2020/12/25 04:51:52;;;;;;;2.38;0.20;;;;;8.40;102093.00;;;;5086844;28;20809;-76
2020/12/25 04:54:18;;;;;;;0.98;0.10;;;;;8.40;102089.00;;;;5088357;28;20194;-76
2020/12/25 04:56:46;;;;;;;0.35;0.08;;;;;8.40;102087.00;;;;5087537;28;20219;-76
2020/12/25 04:59:13;;;;;;;2.20;0.30;;;;;8.40;102089.00;;;;5077460;28;20205;-76
2020/12/25 05:01:40;;;;;;;3.42;0.20;;;;;8.30;102089.00;;;;5085268;28;20198;-76
2020/12/25 05:04:19;;;;;;;2.92;0.32;;;;;8.20;102090.00;;;;5087740;28;20285;-76
2020/12/25 05:06:48;;;;;;;0.52;0.28;;;;;8.30;102098.00;;;;5086530;28;20249;-76
2020/12/25 05:09:16;;;;;;;0.63;0.10;;;;;8.30;102101.00;;;;5087772;28;20201;-76
2020/12/25 05:11:49;;;;;;;0.82;0.10;;;;;8.20;102108.00;;;;5086023;28;20687;-76
2020/12/25 05:14:18;;;;;;;0.35;0.20;;;;;8.20;102106.00;;;;5088331;28;20209;-76
2020/12/25 05:16:46;;;;;;;0.65;0.20;;;;;8.20;102110.00;;;;5086368;28;20195;-77
2020/12/25 05:19:14;;;;;;;1.92;0.22;;;;;8.20;102108.00;;;;5087716;28;20236;-76
2020/12/25 05:21:41;;;;;;;0.17;0.00;;;;;8.20;102112.00;;;;5086019;28;20297;-76
2020/12/25 05:24:08;;;;;;;0.30;0.03;;;;;8.10;102118.00;;;;5086975;28;20199;-76
2020/12/25 05:26:36;;;;;;;1.08;0.20;;;;;8.10;102119.00;;;;5067681;28;20759;-77
2020/12/25 05:29:04;;;;;;;0.13;0.00;;;;;8.10;102125.00;;;;5082195;28;20186;-77
2020/12/25 05:31:31;;;;;;;0.95;0.10;;;;;8.10;102131.00;;;;5087382;28;20221;-76
2020/12/25 05:33:59;;;;;;;1.10;0.10;;;;;8.10;102125.00;;;;5086697;28;20194;-77
2020/12/25 05:36:30;;;;;;;1.15;0.10;;;;;8.00;102128.00;;;;5087779;28;20668;-76
2020/12/25 05:38:57;;;;;;;1.65;0.03;;;;;8.00;102133.00;;;;5087565;28;20267;-76
2020/12/25 05:41:25;;;;;;;0.50;0.20;;;;;8.00;102133.00;;;;5088053;28;20218;-77
2020/12/25 05:43:54;;;;;;;0.30;0.10;;;;;8.00;102137.00;;;;5087387;28;20309;-76
2020/12/25 05:46:21;;;;;;;1.10;0.10;;;;;8.00;102144.00;;;;5087270;28;20237;-76
2020/12/25 05:48:50;;;;;;;0.40;0.17;;;;;8.00;102146.00;;;;5086098;28;20300;-76
2020/12/25 05:51:17;;;;;;;0.32;0.03;;;;;8.00;102151.00;;;;5089750;28;20263;-76
2020/12/25 05:53:45;;;;;;;1.10;0.30;;;;;7.90;102152.00;;;;5091639;28;20209;-76
2020/12/25 05:56:14;;;;;;;0.57;0.20;;;;;7.90;102162.00;;;;5091141;28;20221;-76
2020/12/25 05:58:44;;;;;;;0.25;0.10;;;;;7.90;102160.00;;;;5091257;28;20288;-76
2020/12/25 06:01:12;;;;;;;0.10;0.10;;;;;7.90;102161.00;;;;5090946;28;20308;-76
2020/12/25 06:03:39;;;;;;;2.45;0.45;;;;;7.90;102172.00;;;;5090936;28;20214;-77
2020/12/25 06:06:12;;;;;;;0.98;0.10;;;;;7.80;102180.00;;;;5090370;28;20226;-76
2020/12/25 06:08:53;;;;;;;0.35;0.10;;;;;7.80;102178.00;;;;5085499;28;20207;-76
2020/12/25 06:11:28;;;;;;;1.25;0.10;;;;;7.80;102181.00;;;;5090676;28;20222;-76
2020/12/25 06:13:55;;;;;;;0.30;0.13;;;;;7.80;102179.00;;;;5090744;28;20335;-76
2020/12/25 06:16:22;;;;;;;0.28;0.10;;;;;7.80;102188.00;;;;5090003;28;20217;-77
2020/12/25 06:18:58;;;;;;;1.92;0.30;;;;;7.70;102190.00;;;;5090797;28;20194;-76
2020/12/25 06:21:35;;;;;;;0.60;0.32;;;;;7.70;102195.00;;;;5089266;28;20198;-76
2020/12/25 06:24:03;;;;;;;1.50;0.30;;;;;7.70;102202.00;;;;5089660;28;20676;-76
2020/12/25 06:26:31;;;;;;;1.42;0.15;;;;;7.70;102199.00;;;;5088216;28;20207;-76
2020/12/25 06:29:03;;;;;;;1.30;0.17;;;;;7.70;102199.00;;;;5089958;28;20384;-76
2020/12/25 06:31:42;;;;;;;1.27;0.25;;;;;7.70;102194.00;;;;5090322;28;20286;-76
2020/12/25 06:34:10;;;;;;;1.23;0.32;;;;;7.70;102202.00;;;;5086058;28;20687;-77
2020/12/25 06:36:42;;;;;;;1.08;0.10;;;;;7.70;102200.00;;;;5084283;28;20633;-76
2020/12/25 06:39:12;;;;;;;2.90;0.30;;;;;7.70;102205.00;;;;5090776;28;20198;-77
2020/12/25 06:41:39;;;;;;;0.90;0.43;;;;;7.80;102204.00;;;;5086015;28;20213;-76
2020/12/25 06:44:08;;;;;;;1.10;0.28;;;;;7.80;102200.00;;;;5076660;28;20202;-76
2020/12/25 06:46:35;;;;;;;5.20;0.30;;;;;7.80;102198.00;;;;5081929;28;20205;-76
2020/12/25 06:49:05;;;;;;;2.38;0.17;;;;;7.80;102199.00;;;;5089377;28;20205;-76
2020/12/25 06:51:39;;;;;;;1.00;0.20;;;;;7.90;102205.00;;;;5084285;28;20214;-76
2020/12/25 06:54:06;;;;;;;1.60;0.50;;;;;7.90;102198.00;;;;5090335;28;20213;-76
2020/12/25 06:56:41;;;;;;;2.10;1.02;;;;;7.80;102200.00;;;;5090575;28;20195;-77
2020/12/25 06:59:15;;;;;;;2.97;1.30;;;;;7.90;102194.00;;;;5090973;28;20226;-76
2020/12/25 07:01:43;;;;;;;4.40;2.40;;;;;7.90;102196.00;;;;5086922;28;20222;-76
2020/12/25 07:04:24;;;;;;;4.40;2.80;;;;;7.80;102201.00;;;;5088459;28;20199;-76
2020/12/25 07:06:55;;;;;;;5.05;1.88;;;;;7.90;102206.00;;;;5088684;28;20264;-76
2020/12/25 07:09:22;;;;;;;2.20;1.15;;;;;7.90;102217.00;;;;5090457;28;20210;-76
2020/12/25 07:11:52;;;;;;;1.88;1.25;;;;;7.80;102211.00;;;;5089391;28;20218;-76
2020/12/25 07:14:19;;;;;;;1.10;0.45;;;;;7.90;102220.00;;;;5089732;28;20213;-78
2020/12/25 07:16:46;;;;;;;1.23;0.60;;;;;7.90;102224.00;;;;5081293;28;20235;-77
2020/12/25 07:19:13;;;;;;;3.22;0.70;;;;;7.80;102219.00;;;;5084049;28;20194;-77
2020/12/25 07:21:39;;;;;;;0.70;0.40;;;;;7.90;102220.00;;;;5092829;28;20194;-77
2020/12/25 07:24:07;;;;;;;2.78;0.35;;;;;7.80;102226.00;;;;5090311;28;20209;-78
2020/12/25 07:26:34;;;;;;;1.20;0.30;;;;;7.90;102227.00;;;;5088898;28;20194;-77
2020/12/25 07:29:02;;;;;;;0.80;0.30;;;;;7.90;102228.00;;;;5089488;28;20252;-77
2020/12/25 07:31:29;;;;;;;1.33;0.38;;;;;7.90;102238.00;;;;5089691;28;20230;-78
2020/12/25 07:33:58;;;;;;;1.85;0.45;;;;;7.80;102230.00;;;;5089474;28;20198;-78
2020/12/25 07:36:25;;;;;;;0.75;0.22;;;;;7.80;102244.00;;;;5085251;28;20198;-77
2020/12/25 07:39:01;;;;;;;2.45;0.22;;;;;7.70;102240.00;;;;5088530;28;20993;-77
2020/12/25 07:41:29;;;;;;;1.80;0.43;;;;;7.70;102237.00;;;;5090272;28;20198;-78
2020/12/25 07:43:57;;;;;;;1.20;0.22;;;;;7.70;102239.00;;;;5089114;28;20209;-77
2020/12/25 07:46:25;;;;;;;3.55;1.23;;;;;7.70;102238.00;;;;5089768;28;20197;-77
2020/12/25 07:48:56;;;;;;;3.42;2.15;;;;;7.60;102244.00;;;;5085709;28;20363;-78
2020/12/25 07:51:23;;;;;;;2.92;1.80;;;;;7.70;102237.00;;;;5088876;28;20222;-78
2020/12/25 07:53:51;;;;;;;3.13;1.10;;;;;7.60;102239.00;;;;5089161;28;20198;-78
2020/12/25 07:56:21;;;;;;;2.67;0.88;;;;;7.60;102244.00;;;;5089103;28;20210;-77
2020/12/25 07:58:50;;;;;;;2.83;1.15;;;;;7.60;102246.00;;;;5087450;28;20324;-77
2020/12/25 08:01:19;;;;;;;2.42;1.10;;;;;7.60;102242.00;;;;5088997;28;20267;-77
2020/12/25 08:03:46;;;;;;;1.73;0.60;;;;;7.60;102243.00;;;;5088707;28;20195;-78
2020/12/25 08:06:15;;;;;;;1.00;0.70;;;;;7.60;102247.00;;;;5088413;28;20229;-78
2020/12/25 08:08:46;;;;;;;1.00;0.70;;;;;7.60;102256.00;;;;5086761;28;20198;-79
2020/12/25 08:11:15;;;;;;;1.60;0.77;;;;;7.60;102261.00;;;;5087861;28;20244;-78
2020/12/25 08:13:44;;;;;;;1.23;0.70;;;;;7.60;102265.00;;;;5088116;28;20230;-78
2020/12/25 08:16:12;;;;;;;2.40;0.80;;;;;7.60;102279.00;;;;5088158;28;20194;-78
2020/12/25 08:18:39;;;;;;;3.33;0.73;;;;;7.60;102269.00;;;;5087356;28;20210;-78
2020/12/25 08:21:05;;;;;;;3.47;0.93;;;;;7.60;102266.00;;;;5089116;28;20210;-78
2020/12/25 08:23:33;;;;;;;4.40;1.15;;;;;7.60;102267.00;;;;5088347;28;20194;-78
2020/12/25 08:26:00;;;;;;;2.20;0.95;;;;;7.60;102262.00;;;;5088844;28;20299;-78
2020/12/25 08:28:29;;;;;;;1.30;0.77;;;;;7.60;102267.00;;;;5087050;28;20194;-78
2020/12/25 08:30:56;;;;;;;2.10;0.80;;;;;7.70;102266.00;;;;5089061;28;20191;-78
2020/12/25 08:33:24;;;;;;;1.23;0.70;;;;;7.60;102267.00;;;;5086684;28;20684;-78
2020/12/25 08:35:52;;;;;;;2.00;0.80;;;;;7.70;102267.00;;;;5088543;28;20202;-78
2020/12/25 08:38:19;;;;;;;1.70;0.65;;;;;7.70;102271.00;;;;5088332;28;20205;-78
2020/12/25 08:40:47;;;;;;;1.02;0.55;;;;;7.70;102278.00;;;;5088181;28;20198;-77
2020/12/25 08:43:14;;;;;;;2.05;0.77;;;;;7.70;102272.00;;;;5087544;28;20213;-78
2020/12/25 08:45:55;;;;;;;0.80;0.20;;;;;7.70;102270.00;;;;5088412;28;20201;-77
2020/12/25 08:48:23;;;;;;;1.50;0.60;;;;;7.80;102273.00;;;;5087362;28;20611;-78
2020/12/25 08:50:50;;;;;;;2.00;0.43;;;;;7.80;102278.00;;;;5088478;28;20591;-78
2020/12/25 08:53:21;;;;;;;4.20;1.90;;;;;7.80;102280.00;;;;5075043;28;20231;-77
2020/12/25 08:55:50;;;;;;;3.80;2.42;;;;;7.80;102285.00;;;;5076306;28;20190;-78
2020/12/25 08:58:22;;;;;;;3.78;2.03;;;;;7.90;102286.00;;;;5085462;28;21273;-78
2020/12/25 09:00:59;;;;;;;3.33;1.95;;;;;7.90;102279.00;;;;5070837;28;20219;-78
2020/12/25 09:03:38;;;;;;;2.83;1.50;;;;;7.90;102275.00;;;;5078732;28;20667;-77
2020/12/25 09:06:05;;;;;;;3.78;0.90;;;;;8.00;102277.00;;;;5087362;28;20221;-77
2020/12/25 09:08:32;;;;;;;4.15;0.57;;;;;8.00;102278.00;;;;5086540;28;20198;-77
2020/12/25 09:10:59;;;;;;;1.90;0.38;;;;;8.10;102273.00;;;;5088456;28;20206;-78
2020/12/25 09:13:26;;;;;;;3.75;0.60;;;;;8.10;102276.00;;;;5087552;28;20691;-78
2020/12/25 09:15:53;;;;;;;2.40;0.32;;;;;8.10;102281.00;;;;5082116;28;20199;-77
2020/12/25 09:18:19;;;;;;;1.55;0.50;;;;;8.20;102284.00;;;;5077512;28;20194;-77
2020/12/25 09:20:47;;;;;;;2.60;0.50;;;;;8.20;102292.00;;;;5086712;28;20247;-76
2020/12/25 09:23:14;;;;;;;1.02;0.30;;;;;8.20;102293.00;;;;5088276;28;20216;-77
2020/12/25 09:25:40;;;;;;;0.70;0.30;;;;;8.30;102297.00;;;;5086573;28;20194;-78
2020/12/25 09:28:07;;;;;;;0.75;0.55;;;;;8.30;102300.00;;;;5087035;28;20203;-79
2020/12/25 09:30:34;;;;;;;4.40;1.02;;;;;8.40;102298.00;;;;5087829;28;20251;-77
2020/12/25 09:33:00;;;;;;;2.30;0.65;;;;;8.40;102306.00;;;;5086920;28;20229;-78
2020/12/25 09:35:27;;;;;;;1.75;0.30;;;;;8.40;102299.00;;;;5086535;28;20217;-77
2020/12/25 09:37:55;;;;;;;0.68;0.38;;;;;8.40;102317.00;;;;5070095;28;20626;-77
2020/12/25 09:40:21;;;;;;;2.15;0.63;;;;;8.50;102311.00;;;;5087921;28;20214;-77
2020/12/25 09:42:48;;;;;;;2.97;0.52;;;;;8.50;102312.00;;;;5087589;28;20191;-77
2020/12/25 09:45:15;;;;;;;2.63;0.50;;;;;8.50;102316.00;;;;5087155;28;20194;-77
2020/12/25 09:47:42;;;;;;;3.67;0.55;;;;;8.60;102311.00;;;;5074513;28;20190;-76
2020/12/25 09:50:08;;;;;;;2.63;0.52;;;;;8.60;102310.00;;;;5088153;28;20198;-75
2020/12/25 09:52:35;;;;;;;0.77;0.35;;;;;8.70;102308.00;;;;5086829;28;20226;-76
2020/12/25 09:55:04;;;;;;;2.45;0.52;;;;;8.70;102321.00;;;;5077549;28;20202;-76
2020/12/25 09:57:31;;;;;;;3.50;0.98;;;;;8.70;102330.00;;;;5085170;28;20574;-77
2020/12/25 09:59:57;;;;;;;3.78;0.93;;;;;8.80;102332.00;;;;5086228;28;20688;-77
2020/12/25 10:02:25;;;;;;;2.83;0.40;;;;;8.80;102321.00;;;;5088387;28;20195;-77
2020/12/25 10:04:51;;;;;;;3.13;0.60;;;;;8.90;102333.00;;;;5087065;28;20309;-76
2020/12/25 10:07:18;;;;;;;1.85;0.60;;;;;8.90;102326.00;;;;5087311;28;20214;-77
2020/12/25 10:09:45;;;;;;;3.17;0.50;;;;;9.00;102335.00;;;;5086873;28;20198;-77
2020/12/25 10:12:12;;;;;;;1.77;0.50;;;;;9.00;102334.00;;;;5087140;28;20221;-77
2020/12/25 10:14:39;;;;;;;1.23;0.50;;;;;9.10;102332.00;;;;5086719;28;20210;-77
2020/12/25 10:17:06;;;;;;;4.10;0.68;;;;;9.10;102330.00;;;;5087406;28;20198;-77
2020/12/25 10:19:34;;;;;;;1.83;0.40;;;;;9.10;102332.00;;;;5086319;28;20198;-77
2020/12/25 10:22:00;;;;;;;0.82;0.35;;;;;9.20;102340.00;;;;5087540;28;20252;-77
2020/12/25 10:24:27;;;;;;;1.83;0.50;;;;;9.20;102329.00;;;;5086947;28;20198;-77
2020/12/25 10:26:54;;;;;;;1.70;0.47;;;;;9.30;102338.00;;;;5086605;28;20203;-78
2020/12/25 10:29:21;;;;;;;0.77;0.35;;;;;9.40;102340.00;;;;5087684;28;20194;-78
2020/12/25 10:31:48;;;;;;;3.35;0.32;;;;;9.40;102345.00;;;;5084737;28;20774;-79
2020/12/25 10:34:15;;;;;;;2.05;0.50;;;;;9.50;102341.00;;;;5086808;28;20668;-79
2020/12/25 10:36:42;;;;;;;2.40;0.40;;;;;9.60;102338.00;;;;5088805;28;20198;-79
2020/12/25 10:39:10;;;;;;;2.45;0.52;;;;;9.70;102343.00;;;;5090622;28;20202;-79
2020/12/25 10:41:37;;;;;;;2.72;0.82;;;;;9.80;102346.00;;;;5090469;28;20202;-78
2020/12/25 10:44:05;;;;;;;0.68;0.32;;;;;9.90;102344.00;;;;5091166;28;20206;-79
2020/12/25 10:46:32;;;;;;;2.42;0.63;;;;;9.90;102351.00;;;;5090851;28;20206;-78
2020/12/25 10:48:59;;;;;;;2.15;0.93;;;;;10.00;102350.00;;;;5090774;28;20224;-78
2020/12/25 10:51:26;;;;;;;2.72;1.02;;;;;10.10;102346.00;;;;5091042;28;20206;-78
2020/12/25 10:53:53;;;;;;;2.08;1.25;;;;;10.20;102353.00;;;;5090339;28;20199;-78
2020/12/25 10:56:20;;;;;;;2.13;0.80;;;;;10.30;102341.00;;;;5090589;28;20225;-78
2020/12/25 10:58:47;;;;;;;1.23;0.77;;;;;10.40;102332.00;;;;5090500;28;20325;-78
2020/12/25 11:01:20;;;;;;;2.22;1.00;;;;;10.40;102335.00;;;;5090746;28;20233;-78
2020/12/25 11:03:48;;;;;;;2.17;0.50;;;;;10.50;102329.00;;;;5090644;28;20330;-78
2020/12/25 11:06:15;;;;;;;2.35;0.47;;;;;10.60;102337.00;;;;5089852;28;20714;-78
2020/12/25 11:08:41;;;;;;;2.25;0.40;;;;;10.60;102332.00;;;;5090442;28;20194;-78
2020/12/25 11:11:08;;;;;;;7.13;1.00;;;;;10.70;102327.00;;;;5090896;28;20190;-78
2020/12/25 11:13:35;;;;;;;0.93;0.32;;;;;10.80;102332.00;;;;5090124;28;20686;-78
2020/12/25 11:16:02;;;;;;;0.95;0.35;;;;;10.80;102330.00;;;;5090592;28;20725;-78
2020/12/25 11:18:29;;;;;;;2.20;0.55;;;;;10.80;102330.00;;;;5090561;28;20198;-78
2020/12/25 11:20:56;;;;;;;4.82;0.80;;;;;10.90;102332.00;;;;5090187;28;20766;-78
2020/12/25 11:23:23;;;;;;;3.05;0.50;;;;;10.90;102334.00;;;;5090659;28;20213;-78
2020/12/25 11:25:50;;;;;;;2.38;0.60;;;;;11.00;102332.00;;;;5089795;28;20671;-78
2020/12/25 11:28:18;;;;;;;0.95;0.30;;;;;11.10;102335.00;;;;5090338;28;20264;-78
2020/12/25 11:30:45;;;;;;;1.52;0.38;;;;;11.10;102337.00;;;;5089990;28;20253;-78
2020/12/25 11:33:12;;;;;;;2.53;0.70;;;;;11.20;102334.00;;;;5089748;28;20218;-78
2020/12/25 11:35:38;;;;;;;1.58;0.73;;;;;11.20;102332.00;;;;5089490;28;20202;-77
2020/12/25 11:38:06;;;;;;;1.13;0.52;;;;;11.30;102332.00;;;;5090376;28;20698;-78
2020/12/25 11:40:33;;;;;;;3.25;0.68;;;;;11.30;102325.00;;;;5089805;28;20214;-77
2020/12/25 11:42:59;;;;;;;4.22;0.80;;;;;11.30;102328.00;;;;5090059;28;20202;-77
2020/12/25 11:45:26;;;;;;;1.58;0.73;;;;;11.40;102332.00;;;;5088888;28;20215;-79
2020/12/25 11:47:53;;;;;;;3.78;0.68;;;;;11.40;102323.00;;;;5090069;28;20688;-76
2020/12/25 11:50:19;;;;;;;4.05;1.17;;;;;11.40;102326.00;;;;5091334;28;20575;-77
2020/12/25 11:52:46;;;;;;;2.67;1.63;;;;;11.40;102320.00;;;;5088731;28;20355;-78
2020/12/25 11:55:14;;;;;;;4.00;1.23;;;;;11.40;102310.00;;;;5089520;28;20637;-78
2020/12/25 11:57:40;;;;;;;3.63;1.35;;;;;11.50;102320.00;;;;5088241;28;20194;-79
2020/12/25 12:00:07;;;;;;;4.70;1.35;;;;;11.60;102313.00;;;;5087717;28;20649;-78
2020/12/25 12:02:34;;;;;;;2.33;1.15;;;;;11.70;102318.00;;;;5089382;28;20202;-78
2020/12/25 12:05:00;;;;;;;3.55;1.15;;;;;11.80;102311.00;;;;5089030;28;20194;-77
2020/12/25 12:07:27;;;;;;;2.33;1.10;;;;;11.90;102312.00;;;;5087575;28;20729;-78
2020/12/25 12:09:54;;;;;;;3.08;1.00;;;;;12.00;102316.00;;;;5088765;28;20202;-78
2020/12/25 12:12:21;;;;;;;4.07;1.45;;;;;12.00;102326.00;;;;5089265;28;20752;-78
2020/12/25 12:14:48;;;;;;;2.67;1.30;;;;;12.10;102320.00;;;;5088686;28;20206;-78
2020/12/25 12:17:15;;;;;;;3.38;0.93;;;;;12.10;102318.00;;;;5088413;28;20206;-78